Time;durP1;ratioP1;P1;durP2;ratioP2;P2;SDS_P1;SDS_P2;PMS_P1;PMS_P2;Temp;Humidity;BMP_temperature;BMP_pressure;BME280_temperature;BME280_humidity;BME280_pressure;Samples;Min_cycle;Max_cycle;Signal;HPM_P1;HPM_P2
2023/06/09 00:02:07;;;;;;;11.23;9.90;;;18.20;40.80;;;;;;5070575;28;20387;-71
2023/06/09 00:04:35;;;;;;;11.75;9.80;;;18.30;39.90;;;;;;5070591;28;20394;-71
2023/06/09 00:07:02;;;;;;;13.43;9.98;;;18.40;38.90;;;;;;5070739;28;20738;-71
2023/06/09 00:09:29;;;;;;;12.73;9.68;;;18.50;38.60;;;;;;5070506;28;20379;-71
2023/06/09 00:11:54;;;;;;;13.60;9.95;;;18.30;39.50;;;;;;5069253;28;20434;-70
2023/06/09 00:14:20;;;;;;;13.43;10.50;;;18.10;40.40;;;;;;5070614;28;20786;-70
2023/06/09 00:16:46;;;;;;;14.90;10.02;;;17.90;42.40;;;;;;5070634;28;20376;-70
2023/06/09 00:19:16;;;;;;;12.90;10.40;;;17.70;43.70;;;;;;5070572;28;20775;-70
2023/06/09 00:21:44;;;;;;;13.20;10.52;;;17.60;45.60;;;;;;5069245;28;20399;-70
2023/06/09 00:24:10;;;;;;;14.35;10.82;;;17.60;46.50;;;;;;5070444;28;20384;-71
2023/06/09 00:26:35;;;;;;;14.48;10.55;;;17.50;46.70;;;;;;5070626;28;20732;-70
2023/06/09 00:29:01;;;;;;;13.52;10.45;;;17.60;47.50;;;;;;5070681;28;20391;-71
2023/06/09 00:31:27;;;;;;;12.48;10.35;;;17.50;48.00;;;;;;5070308;28;20371;-72
2023/06/09 00:33:52;;;;;;;16.60;10.70;;;17.40;49.70;;;;;;5070345;28;20482;-69
2023/06/09 00:36:18;;;;;;;11.80;10.00;;;17.30;50.90;;;;;;5070135;28;20380;-69
2023/06/09 00:38:44;;;;;;;10.93;9.50;;;17.20;52.70;;;;;;5068832;28;20435;-69
2023/06/09 00:41:09;;;;;;;13.35;10.50;;;17.20;53.10;;;;;;5070108;28;20853;-70
2023/06/09 00:43:35;;;;;;;12.55;10.23;;;17.10;54.30;;;;;;5070563;28;20395;-70
2023/06/09 00:46:03;;;;;;;15.50;10.20;;;17.10;55.80;;;;;;5070119;28;20429;-71
2023/06/09 00:48:29;;;;;;;11.13;9.68;;;17.10;56.10;;;;;;5070264;28;20784;-70
2023/06/09 00:50:55;;;;;;;15.48;10.85;;;17.00;57.10;;;;;;5070120;28;20686;-69
2023/06/09 00:53:23;;;;;;;13.63;11.00;;;17.00;57.80;;;;;;5070199;28;20372;-69
2023/06/09 00:55:49;;;;;;;12.50;10.20;;;17.00;58.70;;;;;;5069097;28;20384;-69
2023/06/09 00:58:16;;;;;;;13.80;10.68;;;17.00;58.90;;;;;;5070255;28;20466;-71
2023/06/09 01:00:41;;;;;;;16.80;11.80;;;17.30;58.40;;;;;;5070000;28;20405;-71
2023/06/09 01:03:09;;;;;;;16.10;11.98;;;17.40;55.80;;;;;;5069926;28;20379;-71
2023/06/09 01:05:37;;;;;;;14.40;12.20;;;17.50;54.40;;;;;;5070132;28;20386;-69
2023/06/09 01:08:15;;;;;;;14.77;10.90;;;17.60;52.70;;;;;;5070198;28;20832;-71
2023/06/09 01:10:53;;;;;;;13.90;11.07;;;17.80;52.40;;;;;;5070109;28;20384;-70
2023/06/09 01:13:50;;;;;;;18.75;11.68;;;17.80;52.20;;;;;;5070250;28;20383;-69
2023/06/09 01:16:23;;;;;;;17.50;11.33;;;17.70;52.70;;;;;;5073987;28;20442;-70
2023/06/09 01:18:51;;;;;;;20.13;12.40;;;17.50;54.50;;;;;;5073807;28;20410;-70
2023/06/09 01:21:34;;;;;;;16.60;11.77;;;17.10;57.70;;;;;;5073451;28;20736;-72
2023/06/09 01:24:00;;;;;;;14.15;11.85;;;16.90;60.30;;;;;;5073926;28;20375;-70
2023/06/09 01:26:28;;;;;;;15.52;11.70;;;17.10;59.60;;;;;;5073740;28;20386;-71
2023/06/09 01:28:55;;;;;;;14.70;11.50;;;17.00;60.40;;;;;;5073776;28;20433;-68
2023/06/09 01:31:22;;;;;;;15.95;11.82;;;17.00;60.60;;;;;;5073121;28;20391;-70
2023/06/09 01:33:48;;;;;;;14.23;11.95;;;17.20;58.30;;;;;;5073433;28;20407;-71
2023/06/09 01:36:16;;;;;;;13.80;12.02;;;17.00;58.30;;;;;;5073821;28;20403;-70
2023/06/09 01:38:42;;;;;;;15.15;11.93;;;16.90;60.30;;;;;;5073486;28;20375;-69
2023/06/09 01:41:08;;;;;;;14.98;12.32;;;16.70;62.10;;;;;;5073003;28;20783;-70
2023/06/09 01:43:34;;;;;;;16.02;11.60;;;16.90;61.60;;;;;;5073193;28;20449;-69
2023/06/09 01:45:59;;;;;;;16.25;12.70;;;17.20;59.00;;;;;;5073201;28;20391;-70
2023/06/09 01:48:35;;;;;;;18.95;12.70;;;17.30;57.60;;;;;;5074413;28;20885;-71
2023/06/09 01:51:07;;;;;;;16.95;12.10;;;17.40;56.50;;;;;;5074441;28;20384;-70
2023/06/09 01:53:36;;;;;;;15.88;12.23;;;17.50;55.90;;;;;;5074634;28;20618;-71
2023/06/09 01:56:17;;;;;;;15.45;12.70;;;17.40;56.10;;;;;;5073526;28;20372;-71
2023/06/09 01:58:50;;;;;;;13.50;12.10;;;17.10;58.30;;;;;;5073133;28;20403;-69
2023/06/09 02:01:17;;;;;;;16.92;12.68;;;16.80;61.70;;;;;;5073719;28;20861;-69
2023/06/09 02:03:45;;;;;;;17.50;12.63;;;16.60;64.60;;;;;;5073054;28;20407;-69
2023/06/09 02:06:15;;;;;;;18.10;12.77;;;16.90;63.50;;;;;;5073033;28;20607;-71
2023/06/09 02:08:42;;;;;;;16.08;12.63;;;16.90;62.40;;;;;;5073076;28;20376;-69
2023/06/09 02:11:09;;;;;;;18.48;12.80;;;16.70;64.50;;;;;;5072743;28;20390;-69
2023/06/09 02:13:35;;;;;;;15.45;12.68;;;16.60;66.20;;;;;;5072652;28;20865;-69
2023/06/09 02:16:00;;;;;;;16.65;13.40;;;16.60;66.70;;;;;;5072665;28;20380;-70
2023/06/09 02:18:26;;;;;;;17.27;13.07;;;16.70;66.50;;;;;;5072700;28;20506;-71
2023/06/09 02:20:52;;;;;;;15.65;13.10;;;16.90;65.40;;;;;;5072337;28;20766;-70
2023/06/09 02:23:20;;;;;;;16.52;12.55;;;16.90;64.20;;;;;;5072497;28;20371;-71
2023/06/09 02:25:45;;;;;;;17.80;13.95;;;16.70;66.10;;;;;;5071405;28;20988;-69
2023/06/09 02:28:12;;;;;;;16.60;12.90;;;16.60;67.70;;;;;;5072148;28;20430;-70
2023/06/09 02:30:37;;;;;;;15.88;14.00;;;16.50;69.40;;;;;;5072005;28;20399;-71
2023/06/09 02:33:03;;;;;;;21.35;14.95;;;16.40;70.20;;;;;;5072139;28;20379;-70
2023/06/09 02:35:29;;;;;;;17.52;14.20;;;16.40;71.00;;;;;;5072148;28;20399;-71
2023/06/09 02:37:57;;;;;;;20.35;14.15;;;16.30;72.10;;;;;;5072135;28;20907;-71
2023/06/09 02:40:25;;;;;;;17.20;14.10;;;16.40;72.70;;;;;;5071907;28;20730;-70
2023/06/09 02:42:51;;;;;;;17.38;13.75;;;16.60;69.80;;;;;;5072016;28;20559;-69
2023/06/09 02:45:16;;;;;;;19.83;14.63;;;16.70;68.40;;;;;;5072353;28;20467;-71
2023/06/09 02:47:42;;;;;;;18.73;13.00;;;16.70;68.10;;;;;;5073594;28;20376;-71
2023/06/09 02:50:08;;;;;;;22.90;14.30;;;16.60;67.80;;;;;;5072253;28;20380;-71
2023/06/09 02:52:34;;;;;;;18.90;15.02;;;16.40;69.80;;;;;;5072163;28;20388;-69
2023/06/09 02:55:00;;;;;;;19.25;14.23;;;16.30;71.70;;;;;;5072590;28;20980;-71
2023/06/09 02:57:26;;;;;;;18.33;15.15;;;16.20;72.70;;;;;;5072558;28;20487;-71
2023/06/09 02:59:52;;;;;;;16.77;14.83;;;16.20;73.80;;;;;;5072656;28;20744;-71
2023/06/09 03:02:18;;;;;;;17.40;14.90;;;16.20;74.30;;;;;;5072005;28;20375;-70
2023/06/09 03:04:43;;;;;;;18.83;15.30;;;16.20;75.00;;;;;;5071887;28;20387;-70
2023/06/09 03:07:13;;;;;;;17.55;14.73;;;16.40;72.40;;;;;;5071747;28;20917;-70
2023/06/09 03:09:39;;;;;;;17.13;13.90;;;16.50;71.10;;;;;;5071604;28;20942;-71
2023/06/09 03:12:06;;;;;;;17.13;13.68;;;16.60;70.40;;;;;;5071480;28;20882;-71
2023/06/09 03:14:32;;;;;;;20.40;15.50;;;16.60;70.10;;;;;;5071426;28;20770;-71
2023/06/09 03:16:58;;;;;;;23.00;15.68;;;16.60;70.10;;;;;;5071572;28;20380;-70
2023/06/09 03:19:24;;;;;;;19.20;14.70;;;16.80;67.70;;;;;;5071569;28;20914;-71
2023/06/09 03:21:52;;;;;;;20.20;15.00;;;16.80;67.90;;;;;;5071256;28;20459;-70
2023/06/09 03:24:19;;;;;;;21.05;14.50;;;16.90;66.70;;;;;;5071467;28;20486;-70
2023/06/09 03:26:45;;;;;;;28.25;16.27;;;16.80;66.60;;;;;;5071622;28;20836;-70
2023/06/09 03:29:11;;;;;;;19.15;14.95;;;16.80;67.50;;;;;;5071055;28;20882;-70
2023/06/09 03:31:36;;;;;;;20.60;15.85;;;16.80;67.00;;;;;;5070996;28;20392;-70
2023/06/09 03:34:02;;;;;;;20.93;15.60;;;16.90;66.40;;;;;;5071227;28;20403;-71
2023/06/09 03:36:28;;;;;;;20.48;15.73;;;16.70;68.10;;;;;;5070943;28;20384;-71
2023/06/09 03:41:33;;;;;;;21.00;15.82;;;16.70;70.00;;;;;;5048217;28;20436;-73
2023/06/09 03:43:58;;;;;;;21.03;15.83;;;17.00;66.10;;;;;;5032842;28;20390;-73
2023/06/09 03:46:24;;;;;;;21.25;16.15;;;17.10;64.00;;;;;;5050625;28;20463;-72
2023/06/09 03:48:51;;;;;;;21.65;16.83;;;17.10;63.90;;;;;;5050786;28;20378;-73
2023/06/09 03:51:17;;;;;;;21.73;17.20;;;17.10;64.30;;;;;;5050621;28;20377;-74
2023/06/09 03:53:42;;;;;;;25.00;17.08;;;17.20;63.50;;;;;;5050742;28;20842;-73
2023/06/09 03:56:08;;;;;;;21.35;16.60;;;17.20;62.90;;;;;;5050600;28;20377;-73
2023/06/09 03:58:34;;;;;;;24.87;16.93;;;17.30;62.50;;;;;;5050866;28;20446;-73
2023/06/09 04:01:00;;;;;;;21.60;16.67;;;17.20;62.20;;;;;;5050263;28;20376;-74
2023/06/09 04:03:26;;;;;;;23.23;16.10;;;17.30;61.90;;;;;;5050442;28;20382;-73
2023/06/09 04:05:51;;;;;;;20.58;16.33;;;17.20;62.30;;;;;;5051274;28;20451;-74
2023/06/09 04:08:17;;;;;;;22.07;16.33;;;17.20;63.10;;;;;;5050500;28;20385;-73
2023/06/09 04:10:42;;;;;;;21.20;16.40;;;17.00;65.60;;;;;;5050804;28;20389;-74
2023/06/09 04:13:10;;;;;;;20.20;16.52;;;17.00;65.50;;;;;;5050205;28;20469;-73
2023/06/09 04:15:39;;;;;;;21.48;17.10;;;17.20;64.00;;;;;;5050260;28;20404;-74
2023/06/09 04:18:04;;;;;;;22.38;16.02;;;17.40;63.80;;;;;;5049558;28;20394;-73
2023/06/09 04:20:30;;;;;;;23.23;16.73;;;17.40;62.20;;;;;;5051568;28;20885;-74
2023/06/09 04:22:56;;;;;;;22.40;16.40;;;17.20;63.30;;;;;;5051296;28;20386;-74
2023/06/09 04:25:28;;;;;;;21.00;17.05;;;17.10;65.40;;;;;;5050512;28;20389;-73
2023/06/09 04:27:54;;;;;;;21.42;17.38;;;17.20;65.60;;;;;;5052777;28;20385;-73
2023/06/09 04:30:29;;;;;;;17.30;15.40;;;17.40;63.90;;;;;;5050805;28;20447;-73
2023/06/09 04:33:01;;;;;;;22.40;17.00;;;17.40;65.10;;;;;;5059549;28;20504;-74
2023/06/09 04:35:27;;;;;;;21.10;16.00;;;17.50;63.00;;;;;;5060967;28;20436;-74
2023/06/09 04:37:53;;;;;;;20.67;16.33;;;17.70;61.70;;;;;;5064555;28;20727;-74
2023/06/09 04:40:22;;;;;;;23.57;16.07;;;17.70;62.00;;;;;;5059377;28;20394;-73
2023/06/09 04:42:53;;;;;;;21.58;16.80;;;17.80;61.00;;;;;;5065478;28;20767;-73
2023/06/09 04:45:20;;;;;;;19.15;15.20;;;17.90;59.30;;;;;;5065663;28;20388;-73
2023/06/09 04:47:48;;;;;;;22.45;16.70;;;17.90;60.70;;;;;;5052062;28;20833;-73
2023/06/09 04:50:17;;;;;;;19.95;15.73;;;18.00;59.00;;;;;;5054181;28;20404;-74
2023/06/09 04:52:44;;;;;;;20.88;16.63;;;18.20;57.50;;;;;;5054748;28;20848;-73
2023/06/09 04:55:11;;;;;;;20.52;16.08;;;18.50;54.50;;;;;;5054305;28;20401;-73
2023/06/09 04:57:38;;;;;;;19.85;15.60;;;18.50;53.70;;;;;;5054651;28;20636;-73
2023/06/09 05:00:06;;;;;;;20.77;15.80;;;18.60;53.30;;;;;;5055154;28;20381;-74
2023/06/09 05:02:32;;;;;;;21.75;16.80;;;18.70;52.20;;;;;;5066640;28;20408;-73
2023/06/09 05:04:57;;;;;;;24.75;16.60;;;18.80;51.20;;;;;;5068075;28;20423;-74
2023/06/09 05:07:24;;;;;;;24.40;16.40;;;18.90;49.60;;;;;;5053446;28;20550;-73
2023/06/09 05:09:49;;;;;;;21.25;15.80;;;18.90;50.00;;;;;;5054029;28;20385;-73
2023/06/09 05:12:15;;;;;;;19.95;16.00;;;19.00;49.20;;;;;;5053417;28;20400;-74
2023/06/09 05:14:42;;;;;;;22.80;16.03;;;19.00;49.40;;;;;;5053984;28;20916;-73
2023/06/09 05:17:07;;;;;;;21.23;16.33;;;19.10;49.70;;;;;;5053791;28;20392;-74
2023/06/09 05:19:33;;;;;;;22.83;16.20;;;19.10;50.00;;;;;;5053555;28;20389;-73
2023/06/09 05:21:59;;;;;;;21.13;16.13;;;19.20;49.70;;;;;;5053611;28;20469;-74
2023/06/09 05:24:24;;;;;;;23.30;15.53;;;19.30;48.60;;;;;;5053659;28;20409;-72
2023/06/09 05:26:50;;;;;;;18.80;15.60;;;19.30;47.30;;;;;;5053319;28;20765;-73
2023/06/09 05:29:16;;;;;;;22.77;15.63;;;19.40;46.50;;;;;;5053190;28;20396;-73
2023/06/09 05:31:41;;;;;;;17.90;15.23;;;19.50;46.20;;;;;;5053352;28;20468;-73
2023/06/09 05:34:07;;;;;;;20.05;15.23;;;19.40;47.50;;;;;;5052155;28;20433;-73
2023/06/09 05:36:33;;;;;;;19.50;14.60;;;19.60;45.00;;;;;;5053637;28;20393;-72
2023/06/09 05:38:59;;;;;;;17.00;14.37;;;19.60;45.40;;;;;;5053191;28;20826;-73
2023/06/09 05:41:25;;;;;;;18.03;15.33;;;19.70;44.00;;;;;;5052791;28;20499;-73
2023/06/09 05:43:52;;;;;;;21.75;14.77;;;19.90;44.50;;;;;;5053136;28;20393;-73
2023/06/09 05:46:17;;;;;;;21.23;15.30;;;19.90;42.90;;;;;;5052995;28;20393;-73
2023/06/09 05:48:43;;;;;;;20.67;14.52;;;19.90;43.00;;;;;;5051422;28;20683;-75
2023/06/09 05:51:08;;;;;;;20.25;14.60;;;19.90;44.50;;;;;;5052447;28;20394;-73
2023/06/09 05:53:34;;;;;;;17.27;14.60;;;19.80;44.40;;;;;;5052774;28;20389;-73
2023/06/09 05:56:00;;;;;;;21.27;14.50;;;19.80;44.30;;;;;;5052732;28;20415;-73
2023/06/09 05:58:27;;;;;;;18.48;14.60;;;19.90;43.10;;;;;;5052457;28;20404;-73
2023/06/09 06:00:57;;;;;;;15.38;13.43;;;20.20;40.00;;;;;;5050813;28;20404;-73
2023/06/09 06:03:23;;;;;;;14.98;12.27;;;20.40;39.30;;;;;;5051476;28;20527;-73
2023/06/09 06:05:48;;;;;;;18.70;13.90;;;20.50;38.40;;;;;;5052381;28;20476;-72
2023/06/09 06:08:14;;;;;;;18.65;13.90;;;20.60;37.70;;;;;;5052366;28;20393;-73
2023/06/09 06:10:39;;;;;;;19.77;14.32;;;20.60;39.00;;;;;;5052361;28;20392;-73
2023/06/09 06:13:05;;;;;;;17.00;13.57;;;20.60;38.20;;;;;;5052302;28;20388;-73
2023/06/09 06:15:31;;;;;;;18.05;14.02;;;20.70;37.70;;;;;;5052841;28;20433;-73
2023/06/09 06:17:56;;;;;;;18.15;13.98;;;20.80;37.00;;;;;;5052631;28;20393;-73
2023/06/09 06:20:22;;;;;;;17.90;12.73;;;20.90;36.90;;;;;;5052724;28;20384;-73
2023/06/09 06:22:48;;;;;;;19.10;13.27;;;20.90;36.10;;;;;;5051987;28;20940;-74
2023/06/09 06:25:14;;;;;;;19.70;13.13;;;21.10;35.70;;;;;;5052297;28;20830;-74
2023/06/09 06:27:40;;;;;;;15.93;13.60;;;21.00;35.60;;;;;;5052235;28;20407;-74
2023/06/09 06:30:08;;;;;;;17.60;13.45;;;21.20;35.40;;;;;;5051962;28;20477;-73
2023/06/09 06:32:35;;;;;;;20.63;14.05;;;21.30;34.70;;;;;;5052011;28;20565;-73
2023/06/09 06:35:00;;;;;;;19.48;14.70;;;21.40;34.20;;;;;;5052069;28;20478;-73
2023/06/09 06:37:27;;;;;;;19.75;14.82;;;21.50;34.20;;;;;;5046561;28;20939;-73
2023/06/09 06:39:53;;;;;;;19.95;13.80;;;21.40;35.00;;;;;;5042618;28;20397;-73
2023/06/09 06:42:18;;;;;;;15.65;12.90;;;21.40;33.40;;;;;;5035920;28;20512;-76
2023/06/09 06:44:44;;;;;;;18.70;13.63;;;21.50;33.10;;;;;;5033309;28;20900;-75
2023/06/09 06:47:09;;;;;;;18.45;13.10;;;21.60;33.00;;;;;;5031970;28;20387;-76
2023/06/09 06:49:35;;;;;;;18.17;13.80;;;21.60;33.10;;;;;;5031805;28;20403;-76
2023/06/09 06:52:00;;;;;;;19.67;15.10;;;21.70;33.30;;;;;;5032381;28;20397;-76
2023/06/09 06:54:26;;;;;;;16.50;13.67;;;22.00;32.60;;;;;;5031718;28;20407;-76
2023/06/09 06:56:52;;;;;;;16.27;12.80;;;22.20;30.70;;;;;;5032261;28;20670;-76
2023/06/09 06:59:17;;;;;;;19.48;13.10;;;22.30;30.20;;;;;;5042359;28;20435;-76
2023/06/09 07:01:43;;;;;;;20.83;12.40;;;22.40;30.40;;;;;;5034293;28;20441;-76
2023/06/09 07:04:08;;;;;;;19.05;12.27;;;22.50;30.20;;;;;;5032152;28;20397;-75
2023/06/09 07:06:34;;;;;;;14.57;12.00;;;22.50;30.00;;;;;;5050823;28;20691;-74
2023/06/09 07:08:59;;;;;;;15.55;12.05;;;22.40;29.70;;;;;;5032768;28;20398;-73
2023/06/09 07:11:25;;;;;;;15.82;12.25;;;22.40;29.90;;;;;;5031882;28;20402;-76
2023/06/09 07:13:51;;;;;;;14.38;12.35;;;22.50;29.70;;;;;;5031490;28;20379;-74
2023/06/09 07:16:18;;;;;;;20.20;12.90;;;22.80;28.40;;;;;;5042012;28;20394;-73
2023/06/09 07:18:43;;;;;;;19.48;12.00;;;22.80;28.50;;;;;;5051502;28;20377;-75
2023/06/09 07:21:09;;;;;;;17.25;12.15;;;22.60;28.80;;;;;;5051058;28;20397;-75
2023/06/09 07:23:34;;;;;;;15.07;11.03;;;22.70;28.50;;;;;;5044609;28;20389;-74
2023/06/09 07:26:00;;;;;;;17.33;12.18;;;22.80;28.50;;;;;;5031384;28;20715;-75
2023/06/09 07:28:26;;;;;;;18.10;12.60;;;22.80;28.60;;;;;;5039785;28;20435;-74
2023/06/09 07:30:52;;;;;;;16.52;12.27;;;23.00;28.50;;;;;;5055392;28;20465;-74
2023/06/09 07:33:19;;;;;;;17.55;12.18;;;23.00;27.50;;;;;;5060007;28;20396;-74
2023/06/09 07:35:46;;;;;;;16.10;12.33;;;22.90;27.60;;;;;;5054245;28;20703;-75
2023/06/09 07:38:13;;;;;;;12.73;10.65;;;22.90;28.20;;;;;;5050945;28;20431;-75
2023/06/09 07:40:38;;;;;;;14.48;11.80;;;23.10;27.40;;;;;;5041897;28;20407;-74
2023/06/09 07:43:04;;;;;;;20.98;12.60;;;23.20;26.50;;;;;;5030898;28;20418;-75
2023/06/09 07:45:30;;;;;;;15.20;11.60;;;23.10;26.50;;;;;;5031264;28;20391;-75
2023/06/09 07:47:56;;;;;;;16.42;12.15;;;23.20;27.00;;;;;;5031113;28;20460;-74
2023/06/09 07:50:22;;;;;;;16.80;11.33;;;23.40;25.80;;;;;;5031344;28;20449;-73
2023/06/09 07:52:47;;;;;;;13.30;10.70;;;23.40;27.10;;;;;;5030918;28;20386;-74
2023/06/09 07:55:13;;;;;;;20.17;10.23;;;23.60;26.10;;;;;;5034571;28;20451;-74
2023/06/09 07:57:39;;;;;;;18.17;9.80;;;23.70;23.40;;;;;;5041725;28;20400;-73
2023/06/09 08:00:06;;;;;;;14.70;10.27;;;23.70;23.40;;;;;;5053335;28;20428;-74
2023/06/09 08:02:32;;;;;;;15.32;9.98;;;23.90;22.40;;;;;;5035673;28;20807;-74
2023/06/09 08:04:59;;;;;;;16.03;9.80;;;23.90;21.30;;;;;;5049492;28;20386;-75
2023/06/09 08:07:24;;;;;;;13.27;9.57;;;24.00;22.30;;;;;;5050568;28;20443;-75
2023/06/09 08:09:50;;;;;;;12.80;9.52;;;24.00;20.20;;;;;;5050317;28;20413;-75
2023/06/09 08:12:16;;;;;;;11.63;9.20;;;24.00;20.70;;;;;;5050255;28;20389;-75
2023/06/09 08:14:41;;;;;;;13.00;9.90;;;24.00;20.00;;;;;;5035667;28;20460;-75
2023/06/09 08:17:07;;;;;;;16.10;9.90;;;24.10;20.80;;;;;;5030654;28;20422;-75
2023/06/09 08:19:32;;;;;;;12.20;10.03;;;24.20;20.60;;;;;;5039697;28;20408;-73
2023/06/09 08:21:58;;;;;;;16.13;8.90;;;24.30;20.00;;;;;;5027992;28;20882;-73
2023/06/09 08:24:24;;;;;;;14.40;9.30;;;24.50;19.70;;;;;;5029195;28;20399;-72
2023/06/09 08:26:50;;;;;;;10.57;9.30;;;24.70;19.30;;;;;;5029375;28;20820;-74
2023/06/09 08:29:16;;;;;;;13.30;9.38;;;24.90;18.90;;;;;;5028280;28;20406;-73
2023/06/09 08:31:42;;;;;;;12.05;8.57;;;24.90;18.40;;;;;;5030440;28;20473;-74
2023/06/09 08:34:08;;;;;;;12.45;8.80;;;25.20;17.30;;;;;;5047717;28;20850;-73
2023/06/09 08:36:34;;;;;;;10.60;8.90;;;25.20;17.30;;;;;;5049705;28;20743;-74
2023/06/09 08:38:59;;;;;;;18.77;10.40;;;25.20;17.30;;;;;;5049597;28;20393;-73
2023/06/09 08:41:28;;;;;;;15.02;9.60;;;25.30;17.20;;;;;;5046828;28;20418;-74
2023/06/09 08:43:55;;;;;;;15.23;9.82;;;25.40;17.30;;;;;;5037013;28;20408;-73
2023/06/09 08:46:23;;;;;;;13.35;9.30;;;25.50;16.40;;;;;;5049695;28;20461;-74
2023/06/09 08:48:56;;;;;;;17.80;10.02;;;25.40;16.60;;;;;;5032170;28;20395;-73
2023/06/09 08:51:22;;;;;;;13.38;10.30;;;25.20;16.90;;;;;;5036963;28;20393;-73
2023/06/09 08:53:52;;;;;;;9.73;8.73;;;25.30;16.60;;;;;;5049562;28;20388;-74
2023/06/09 08:56:18;;;;;;;11.23;8.98;;;25.40;16.40;;;;;;5037643;28;20478;-73
2023/06/09 08:58:46;;;;;;;12.68;9.98;;;25.60;15.70;;;;;;5030232;28;20970;-72
2023/06/09 09:01:11;;;;;;;12.80;9.53;;;25.60;16.30;;;;;;5030320;28;20407;-74
2023/06/09 09:03:37;;;;;;;20.30;13.30;;;25.80;13.40;;;;;;5042751;28;20401;-73
2023/06/09 09:06:03;;;;;;;17.20;12.85;;;25.90;14.60;;;;;;5049164;28;20391;-72
2023/06/09 09:08:28;;;;;;;17.90;12.30;;;26.00;15.10;;;;;;5049943;28;20377;-72
2023/06/09 09:10:54;;;;;;;16.05;11.68;;;26.00;15.20;;;;;;5049705;28;20738;-72
2023/06/09 09:13:24;;;;;;;16.70;11.20;;;26.10;14.60;;;;;;5049920;28;20407;-73
2023/06/09 09:15:50;;;;;;;12.73;10.53;;;26.10;14.30;;;;;;5049541;28;20412;-73
2023/06/09 09:18:17;;;;;;;11.93;10.50;;;26.20;13.70;;;;;;5050452;28;20377;-73
2023/06/09 09:20:42;;;;;;;21.58;15.38;;;26.20;13.40;;;;;;5050173;28;20439;-73
2023/06/09 09:23:08;;;;;;;11.17;8.90;;;26.40;12.70;;;;;;5049809;28;20777;-73
2023/06/09 09:25:34;;;;;;;14.93;9.68;;;26.50;12.30;;;;;;5050102;28;20403;-72
2023/06/09 09:28:07;;;;;;;18.20;13.73;;;26.60;12.60;;;;;;5049764;28;20389;-73
2023/06/09 09:30:55;;;;;;;15.48;11.63;;;26.60;12.50;;;;;;5049576;28;20393;-73
2023/06/09 09:33:26;;;;;;;23.48;16.70;;;26.70;12.40;;;;;;5050235;28;20862;-73
2023/06/09 09:35:57;;;;;;;11.05;8.63;;;26.80;12.50;;;;;;5052525;28;20413;-73
2023/06/09 09:38:30;;;;;;;12.23;9.38;;;26.90;12.30;;;;;;5052998;28;20438;-73
2023/06/09 09:41:00;;;;;;;24.15;15.18;;;27.00;11.40;;;;;;5087720;23;20794;-70
2023/06/09 09:43:27;;;;;;;14.23;10.45;;;27.10;11.20;;;;;;5053146;28;20456;-71
2023/06/09 09:45:55;;;;;;;9.05;7.10;;;27.20;10.30;;;;;;5053795;28;20388;-71
2023/06/09 09:48:23;;;;;;;10.05;7.90;;;27.00;9.70;;;;;;5054307;28;20386;-70
2023/06/09 09:50:51;;;;;;;9.43;7.47;;;27.10;10.10;;;;;;5053243;28;20389;-71
2023/06/09 09:53:20;;;;;;;11.70;9.57;;;27.00;10.50;;;;;;5053714;28;20877;-73
2023/06/09 09:55:46;;;;;;;12.60;9.20;;;27.20;10.20;;;;;;5053823;28;20427;-70
2023/06/09 09:58:14;;;;;;;10.53;8.40;;;27.20;9.60;;;;;;5053013;28;20494;-71
2023/06/09 10:00:44;;;;;;;16.48;11.55;;;27.30;8.00;;;;;;5052913;28;20385;-71
2023/06/09 10:03:13;;;;;;;14.40;10.80;;;27.40;8.50;;;;;;5052772;28;20396;-69
2023/06/09 10:05:43;;;;;;;14.48;10.75;;;27.40;8.50;;;;;;5052721;28;20381;-72
2023/06/09 10:08:12;;;;;;;15.98;12.43;;;27.50;6.80;;;;;;5052632;28;20389;-72
2023/06/09 10:10:39;;;;;;;10.25;8.77;;;27.50;6.90;;;;;;5052528;28;20382;-70
2023/06/09 10:13:05;;;;;;;13.73;11.70;;;27.50;7.00;;;;;;5052339;28;20722;-72
2023/06/09 10:15:32;;;;;;;7.22;6.53;;;27.60;7.60;;;;;;5052700;28;20405;-71
2023/06/09 10:17:58;;;;;;;15.10;12.05;;;27.70;6.20;;;;;;5052579;28;20382;-73
2023/06/09 10:20:24;;;;;;;11.07;8.27;;;27.70;6.70;;;;;;5052431;28;20435;-71
2023/06/09 10:22:52;;;;;;;9.95;7.40;;;27.60;6.50;;;;;;5051725;28;20385;-70
2023/06/09 10:25:17;;;;;;;12.50;8.40;;;27.60;6.00;;;;;;5051753;28;20435;-72
2023/06/09 10:27:44;;;;;;;12.93;8.67;;;27.60;6.30;;;;;;5052602;28;20381;-70
2023/06/09 10:30:11;;;;;;;11.40;9.60;;;27.70;6.40;;;;;;5052142;28;20404;-71
2023/06/09 10:32:46;;;;;;;8.53;7.67;;;27.70;6.50;;;;;;5052338;28;20388;-71
2023/06/09 10:35:17;;;;;;;10.80;6.57;;;27.70;6.30;;;;;;5052391;28;20505;-70
2023/06/09 10:37:46;;;;;;;8.00;7.20;;;27.70;6.40;;;;;;5035119;28;20382;-70
2023/06/09 10:40:21;;;;;;;8.30;7.17;;;27.80;6.80;;;;;;5050665;28;20454;-69
2023/06/09 10:43:30;;;;;;;8.00;6.70;;;27.80;7.00;;;;;;5052105;28;20795;-71
2023/06/09 10:45:57;;;;;;;11.35;7.20;;;27.90;6.60;;;;;;5009086;28;20400;-72
2023/06/09 10:48:48;;;;;;;11.32;8.30;;;28.10;7.30;;;;;;5045835;28;20396;-71
2023/06/09 10:51:29;;;;;;;13.23;9.45;;;28.30;7.30;;;;;;5051751;28;20384;-70
2023/06/09 10:54:09;;;;;;;8.63;6.93;;;28.50;6.60;;;;;;5052425;28;20500;-73
2023/06/09 10:56:40;;;;;;;10.15;7.25;;;28.70;6.20;;;;;;5052729;28;20765;-72
2023/06/09 10:59:26;;;;;;;9.48;7.45;;;28.80;6.40;;;;;;5052614;28;20416;-70
2023/06/09 11:02:21;;;;;;;11.25;6.60;;;28.90;6.00;;;;;;5051666;28;20377;-70
2023/06/09 11:04:49;;;;;;;9.00;7.57;;;28.90;6.30;;;;;;5051952;28;20401;-73
2023/06/09 11:07:14;;;;;;;20.40;9.38;;;29.10;6.50;;;;;;5055512;28;20734;-71
2023/06/09 11:09:47;;;;;;;12.38;7.90;;;29.30;6.00;;;;;;5054859;28;20396;-70
2023/06/09 11:12:24;;;;;;;13.93;8.63;;;29.20;5.60;;;;;;5054837;28;20535;-71
2023/06/09 11:14:58;;;;;;;11.47;7.33;;;29.20;6.00;;;;;;5058061;28;20413;-70
2023/06/09 11:17:51;;;;;;;11.35;7.15;;;29.10;6.30;;;;;;5051766;28;20401;-71
2023/06/09 11:20:23;;;;;;;11.45;8.65;;;29.00;6.60;;;;;;5051631;28;20393;-71
2023/06/09 11:22:48;;;;;;;8.35;6.00;;;29.10;6.20;;;;;;5051287;28;20389;-71
2023/06/09 11:25:17;;;;;;;9.30;7.50;;;29.10;5.50;;;;;;5051221;28;20381;-70
2023/06/09 11:27:44;;;;;;;10.63;8.98;;;29.10;6.00;;;;;;5051508;28;20787;-71
2023/06/09 11:30:14;;;;;;;15.50;8.65;;;29.40;6.10;;;;;;5052325;28;20386;-72
2023/06/09 11:33:02;;;;;;;7.57;5.88;;;29.70;5.40;;;;;;5052777;28;20740;-72
2023/06/09 11:35:28;;;;;;;8.55;7.53;;;29.90;4.20;;;;;;5052135;28;20793;-71
2023/06/09 11:38:02;;;;;;;9.00;7.23;;;29.90;4.70;;;;;;5052216;28;20378;-73
2023/06/09 11:40:30;;;;;;;12.50;7.45;;;30.10;4.90;;;;;;5052077;28;20418;-72
2023/06/09 11:42:56;;;;;;;11.77;8.10;;;30.30;4.20;;;;;;5051127;28;20429;-72
2023/06/09 11:45:32;;;;;;;10.52;6.93;;;30.60;2.90;;;;;;5050913;28;20381;-72
2023/06/09 11:48:01;;;;;;;8.05;6.40;;;30.50;2.60;;;;;;5049934;28;20479;-73
2023/06/09 11:50:35;;;;;;;11.98;7.10;;;30.50;2.30;;;;;;5050754;28;20468;-71
2023/06/09 11:53:08;;;;;;;12.43;6.90;;;30.60;1.90;;;;;;5051085;28;20468;-71
2023/06/09 11:55:34;;;;;;;11.15;8.05;;;30.60;1.60;;;;;;5050717;28;20402;-71
2023/06/09 11:58:01;;;;;;;9.50;6.10;;;30.30;2.40;;;;;;5050391;28;20460;-71
2023/06/09 12:00:28;;;;;;;8.80;7.60;;;30.00;2.80;;;;;;5049269;28;20409;-71
2023/06/09 12:02:54;;;;;;;13.10;8.32;;;30.00;3.80;;;;;;5050396;28;20393;-71
2023/06/09 12:05:21;;;;;;;8.45;6.13;;;29.80;3.90;;;;;;5049497;28;20959;-70
2023/06/09 12:07:47;;;;;;;12.30;8.52;;;29.90;3.00;;;;;;5050379;28;20790;-72
2023/06/09 12:10:17;;;;;;;9.57;7.00;;;30.10;3.60;;;;;;5050578;28;20793;-71
2023/06/09 12:12:43;;;;;;;8.30;6.28;;;30.20;2.50;;;;;;5050540;28;20473;-71
2023/06/09 12:15:10;;;;;;;8.95;6.85;;;29.90;3.00;;;;;;5050414;28;20462;-72
2023/06/09 12:17:36;;;;;;;9.18;7.50;;;29.90;2.90;;;;;;5050456;28;20410;-69
2023/06/09 12:20:30;;;;;;;10.90;7.05;;;29.70;2.30;;;;;;5050336;28;20405;-71
2023/06/09 12:23:00;;;;;;;6.28;5.68;;;29.40;3.10;;;;;;5050171;28;20395;-71
2023/06/09 12:25:31;;;;;;;10.85;8.20;;;29.40;3.50;;;;;;5048925;28;20447;-70
2023/06/09 12:28:14;;;;;;;9.48;7.15;;;29.80;3.40;;;;;;5050219;28;20472;-73
2023/06/09 12:30:45;;;;;;;10.23;8.07;;;29.90;3.00;;;;;;5050057;28;20858;-70
2023/06/09 12:33:12;;;;;;;9.68;7.00;;;30.20;3.60;;;;;;5049911;28;20435;-70
2023/06/09 12:35:48;;;;;;;11.53;7.67;;;30.30;1.40;;;;;;5050229;28;20404;-70
2023/06/09 12:38:14;;;;;;;7.30;5.10;;;30.30;1.40;;;;;;5050261;28;20381;-70
2023/06/09 12:40:55;;;;;;;7.32;6.15;;;30.50;1.60;;;;;;5049901;28;20743;-70